Time;durP1;ratioP1;P1;durP2;ratioP2;P2;SDS_P1;SDS_P2;PMS_P1;PMS_P2;Temp;Humidity;BMP_temperature;BMP_pressure;BME280_temperature;BME280_humidity;BME280_pressure;Samples;Min_cycle;Max_cycle;Signal;HPM_P1;HPM_P2
2021/05/24 00:02:14;;;;;;;8.80;4.80;;;;;;;17.91;62.36;100514.77;1691059;82;21559;-68
2021/05/24 00:04:40;;;;;;;10.40;5.00;;;;;;;17.92;62.31;100520.92;1671530;84;21183;-70
2021/05/24 00:07:07;;;;;;;8.70;4.72;;;;;;;17.89;61.97;100522.61;1689249;82;21453;-67
2021/05/24 00:09:36;;;;;;;9.90;5.10;;;;;;;17.85;61.64;100519.39;1748759;80;21112;-69
2021/05/24 00:12:03;;;;;;;10.15;5.95;;;;;;;17.82;61.64;100523.75;1732144;81;21599;-70
2021/05/24 00:14:32;;;;;;;8.78;4.70;;;;;;;17.79;61.88;100522.23;1724121;81;21069;-66
2021/05/24 00:17:00;;;;;;;7.03;4.50;;;;;;;17.75;61.77;100525.39;1746060;81;21079;-71
2021/05/24 00:19:26;;;;;;;7.42;4.72;;;;;;;17.71;62.00;100530.72;1747820;81;21143;-69
2021/05/24 00:21:53;;;;;;;9.53;5.15;;;;;;;17.70;61.83;100536.55;1749865;81;21053;-67
2021/05/24 00:24:21;;;;;;;8.28;4.70;;;;;;;17.68;62.16;100539.03;1749570;80;21148;-70
2021/05/24 00:26:49;;;;;;;9.53;4.12;;;;;;;17.68;61.90;100541.70;1749322;80;21065;-67
2021/05/24 00:29:19;;;;;;;7.60;4.37;;;;;;;17.70;61.32;100552.52;1749416;79;21111;-68
2021/05/24 00:31:45;;;;;;;7.33;4.10;;;;;;;17.70;60.91;100546.34;1743484;80;21080;-69
2021/05/24 00:34:13;;;;;;;9.58;4.17;;;;;;;17.63;61.41;100550.16;1726441;81;21041;-68
2021/05/24 00:36:41;;;;;;;8.68;4.42;;;;;;;17.58;62.13;100544.00;1752514;81;21697;-74
2021/05/24 00:39:08;;;;;;;8.23;4.12;;;;;;;17.55;63.00;100544.36;1742803;81;21088;-70
2021/05/24 00:41:38;;;;;;;10.80;5.10;;;;;;;17.55;63.27;100552.81;1750638;81;21084;-71
2021/05/24 00:44:06;;;;;;;6.80;3.98;;;;;;;17.50;62.76;100557.80;1736699;80;21080;-71
2021/05/24 00:46:32;;;;;;;15.43;3.30;;;;;;;17.42;62.24;100566.61;1727806;81;21112;-69
2021/05/24 00:48:59;;;;;;;6.62;3.20;;;;;;;17.34;62.17;100565.26;1733523;80;21620;-67
2021/05/24 00:51:26;;;;;;;8.35;3.50;;;;;;;17.26;62.25;100564.73;1741336;81;21096;-71
2021/05/24 00:53:53;;;;;;;7.70;3.17;;;;;;;17.21;62.28;100563.88;1738554;81;22625;-68
2021/05/24 00:56:22;;;;;;;5.25;2.90;;;;;;;17.25;61.93;100569.73;1731715;81;21188;-66
2021/05/24 00:58:48;;;;;;;4.35;2.20;;;;;;;17.30;61.81;100571.41;1747957;81;21653;-71
2021/05/24 01:01:15;;;;;;;5.40;2.65;;;;;;;17.27;61.42;100569.89;1740843;79;21104;-67
2021/05/24 01:03:41;;;;;;;5.42;2.77;;;;;;;17.21;61.89;100567.86;1754457;80;21066;-66
2021/05/24 01:06:07;;;;;;;4.97;2.62;;;;;;;17.15;62.15;100566.37;1750280;81;21113;-67
2021/05/24 01:08:34;;;;;;;5.65;2.87;;;;;;;17.10;62.69;100566.85;1760433;79;21085;-67
2021/05/24 01:11:00;;;;;;;5.22;2.55;;;;;;;17.02;62.93;100566.31;1750965;79;21073;-70
2021/05/24 01:13:28;;;;;;;5.95;2.92;;;;;;;16.98;63.29;100576.09;1753590;81;21108;-68
2021/05/24 01:15:55;;;;;;;5.85;2.60;;;;;;;16.92;63.64;100577.57;1753075;80;21088;-66
2021/05/24 01:18:21;;;;;;;5.62;2.47;;;;;;;16.85;63.63;100570.73;1747473;81;21896;-68
2021/05/24 01:20:48;;;;;;;7.75;2.22;;;;;;;16.84;63.80;100581.02;1752507;79;21088;-67
2021/05/24 01:23:17;;;;;;;5.28;2.08;;;;;;;16.92;63.91;100583.39;1743681;79;21088;-67
2021/05/24 01:25:45;;;;;;;5.75;2.20;;;;;;;16.97;63.78;100581.91;1744720;81;21582;-68
2021/05/24 01:28:13;;;;;;;4.97;1.95;;;;;;;17.00;63.76;100584.77;1746958;81;21081;-67
2021/05/24 01:30:40;;;;;;;5.60;1.90;;;;;;;16.96;63.94;100582.89;1746487;80;21762;-71
2021/05/24 01:33:08;;;;;;;5.15;1.95;;;;;;;16.93;64.14;100587.70;1749838;80;21085;-70
2021/05/24 01:35:38;;;;;;;3.75;1.80;;;;;;;16.88;64.20;100579.72;1740719;79;21092;-67
2021/05/24 01:38:06;;;;;;;5.20;1.90;;;;;;;16.86;64.25;100575.06;1748811;81;21048;-68
2021/05/24 01:40:33;;;;;;;4.03;1.82;;;;;;;16.82;64.32;100579.48;1734069;81;21061;-66
2021/05/24 01:43:00;;;;;;;4.22;1.42;;;;;;;16.76;64.60;100579.64;1741672;81;21112;-69
2021/05/24 01:45:27;;;;;;;4.47;1.55;;;;;;;16.72;64.60;100579.60;1729200;81;22255;-67
2021/05/24 01:47:54;;;;;;;3.05;1.20;;;;;;;16.72;64.48;100578.27;1728898;81;21105;-74
2021/05/24 01:50:21;;;;;;;4.10;1.27;;;;;;;16.77;64.52;100579.95;1748070;81;21401;-70
2021/05/24 01:52:49;;;;;;;3.15;1.15;;;;;;;16.81;64.38;100580.47;1749217;81;22027;-67
2021/05/24 01:55:16;;;;;;;3.65;1.30;;;;;;;16.83;64.22;100581.99;1747901;81;21057;-70
2021/05/24 01:57:44;;;;;;;2.95;0.90;;;;;;;16.83;64.17;100582.50;1751822;81;21073;-67
2021/05/24 02:00:16;;;;;;;3.37;1.20;;;;;;;16.79;64.18;100583.78;1745769;81;21641;-67
2021/05/24 02:02:44;;;;;;;3.02;1.10;;;;;;;16.74;64.23;100582.93;1699631;81;21057;-68
2021/05/24 02:05:12;;;;;;;2.08;0.82;;;;;;;16.70;63.99;100582.41;1745046;80;21555;-67
2021/05/24 02:07:39;;;;;;;4.33;1.30;;;;;;;16.65;64.20;100583.89;1727671;80;21132;-70
2021/05/24 02:10:10;;;;;;;4.17;1.30;;;;;;;16.60;64.53;100594.16;1749394;81;21107;-70
2021/05/24 02:12:37;;;;;;;3.17;1.20;;;;;;;16.55;64.76;100592.47;1730922;80;21084;-72
2021/05/24 02:15:06;;;;;;;3.87;1.15;;;;;;;16.56;64.87;100604.73;1715389;83;21056;-68
2021/05/24 02:17:34;;;;;;;3.45;1.35;;;;;;;16.57;64.91;100607.24;1672061;83;21045;-72
2021/05/24 02:20:01;;;;;;;3.72;1.27;;;;;;;16.60;64.95;100608.77;1674498;83;21613;-68
2021/05/24 02:22:28;;;;;;;3.58;1.30;;;;;;;16.59;64.96;100619.05;1704052;82;21677;-67
2021/05/24 02:24:54;;;;;;;4.00;1.70;;;;;;;16.56;65.14;100618.88;1701042;82;21087;-68
2021/05/24 02:27:21;;;;;;;3.35;1.42;;;;;;;16.53;65.40;100628.48;1675975;82;21520;-69
2021/05/24 02:29:47;;;;;;;3.58;1.15;;;;;;;16.50;65.59;100623.47;1703355;83;21115;-70
2021/05/24 02:32:14;;;;;;;4.03;1.32;;;;;;;16.49;65.68;100625.30;1711578;83;21123;-68
2021/05/24 02:34:40;;;;;;;3.75;1.45;;;;;;;16.48;65.50;100623.63;1680921;83;21708;-69
2021/05/24 02:37:07;;;;;;;4.22;1.17;;;;;;;16.48;65.59;100627.61;1645092;85;21072;-66
2021/05/24 02:39:35;;;;;;;3.20;1.20;;;;;;;16.50;65.62;100628.28;1707195;81;21100;-68
2021/05/24 02:42:01;;;;;;;4.03;1.15;;;;;;;16.55;65.47;100621.69;1675454;83;21076;-66
2021/05/24 02:44:28;;;;;;;3.42;1.25;;;;;;;16.56;65.36;100622.00;1707439;81;21907;-67
2021/05/24 02:46:54;;;;;;;4.58;1.30;;;;;;;16.55;65.54;100621.69;1684996;81;21131;-67
2021/05/24 02:49:21;;;;;;;4.70;1.80;;;;;;;16.50;65.66;100615.00;1709521;81;21080;-67
2021/05/24 02:51:47;;;;;;;4.12;1.55;;;;;;;16.46;65.71;100616.31;1696932;81;22367;-67
2021/05/24 02:54:13;;;;;;;4.45;1.50;;;;;;;16.41;65.93;100615.95;1673203;83;21080;-67
2021/05/24 02:56:40;;;;;;;3.20;1.42;;;;;;;16.33;65.96;100607.92;1700143;83;21165;-68
2021/05/24 02:59:07;;;;;;;4.33;1.52;;;;;;;16.23;66.17;100616.47;1676228;83;21146;-67
2021/05/24 03:01:35;;;;;;;4.03;1.37;;;;;;;16.19;66.41;100619.08;1705102;82;22580;-69
2021/05/24 03:04:03;;;;;;;3.70;1.27;;;;;;;16.20;66.21;100616.27;1703633;82;21096;-66
2021/05/24 03:06:29;;;;;;;4.15;1.82;;;;;;;16.21;66.29;100623.77;1699555;83;21060;-67
2021/05/24 03:08:56;;;;;;;6.05;1.95;;;;;;;16.16;66.52;100627.70;1713125;81;21109;-69
2021/05/24 03:11:22;;;;;;;4.85;1.55;;;;;;;16.09;66.64;100621.84;1701010;83;21215;-67
2021/05/24 03:13:50;;;;;;;3.33;1.40;;;;;;;16.01;66.88;100614.63;1709771;83;21140;-67
2021/05/24 03:16:17;;;;;;;6.42;1.82;;;;;;;15.95;67.06;100620.07;1709004;81;21545;-66
2021/05/24 03:18:45;;;;;;;3.62;1.50;;;;;;;15.86;67.33;100619.64;1751503;81;22026;-68
2021/05/24 03:21:11;;;;;;;4.95;1.95;;;;;;;15.76;67.38;100620.20;1748105;80;21077;-66
2021/05/24 03:23:38;;;;;;;4.35;1.72;;;;;;;15.67;67.69;100612.63;1751396;81;21113;-71
2021/05/24 03:26:04;;;;;;;4.85;1.85;;;;;;;15.53;68.03;100613.99;1729382;81;21633;-69
2021/05/24 03:28:30;;;;;;;4.40;1.80;;;;;;;15.41;68.33;100614.66;1739808;81;21139;-67
2021/05/24 03:30:58;;;;;;;5.53;1.77;;;;;;;15.30;68.81;100614.89;1756452;81;21304;-70
2021/05/24 03:33:25;;;;;;;5.37;2.30;;;;;;;15.15;69.10;100617.19;1762106;80;21072;-66
2021/05/24 03:35:51;;;;;;;5.85;1.65;;;;;;;15.08;69.56;100616.58;1737757;80;21077;-67
2021/05/24 03:38:18;;;;;;;3.67;1.60;;;;;;;15.09;69.44;100616.44;1742190;81;22493;-69
2021/05/24 03:40:45;;;;;;;5.40;2.30;;;;;;;15.09;69.76;100619.59;1744052;81;21096;-67
2021/05/24 03:43:12;;;;;;;4.47;1.82;;;;;;;14.99;69.95;100613.00;1751614;80;21066;-67
2021/05/24 03:45:39;;;;;;;5.25;1.60;;;;;;;14.85;70.49;100607.20;1746492;81;21077;-68
2021/05/24 03:48:07;;;;;;;3.27;1.20;;;;;;;14.76;70.82;100609.87;1694369;82;21590;-67
2021/05/24 03:50:34;;;;;;;5.28;1.57;;;;;;;14.73;71.03;100610.19;1695059;84;21069;-67
2021/05/24 03:53:02;;;;;;;3.77;1.47;;;;;;;14.68;71.06;100615.41;1742926;79;21599;-69
2021/05/24 03:55:28;;;;;;;4.80;1.67;;;;;;;14.66;71.10;100622.67;1760718;81;21056;-69
2021/05/24 03:57:54;;;;;;;7.60;1.70;;;;;;;14.66;71.33;100627.14;1745948;81;21140;-66
2021/05/24 04:00:21;;;;;;;5.12;1.62;;;;;;;14.68;71.25;100626.00;1743498;80;21156;-67
2021/05/24 04:02:48;;;;;;;6.95;1.77;;;;;;;14.77;71.21;100629.59;1748659;81;21068;-69
2021/05/24 04:07:53;;;;;;;4.15;1.57;;;;;;;14.86;70.95;100631.86;1735369;81;21115;-71
2021/05/24 04:10:15;;;;;;;4.87;1.60;;;;;;;14.78;71.26;100630.45;1724516;81;21786;-68
2021/05/24 04:12:41;;;;;;;6.97;1.42;;;;;;;14.72;71.06;100632.34;1741008;79;21057;-67
2021/05/24 04:15:09;;;;;;;5.97;1.47;;;;;;;14.66;70.98;100620.52;1746237;81;21622;-66
2021/05/24 04:17:38;;;;;;;4.75;1.47;;;;;;;14.65;71.18;100622.81;1758531;80;21198;-65
2021/05/24 04:20:07;;;;;;;12.70;5.90;;;;;;;14.55;71.10;100625.45;1752811;80;21595;-66
2021/05/24 04:22:34;;;;;;;13.98;6.67;;;;;;;14.42;71.64;100609.03;1753842;81;21076;-74
2021/05/24 04:25:01;;;;;;;8.08;3.87;;;;;;;14.31;71.74;100613.51;1756608;81;21097;-69
2021/05/24 04:27:27;;;;;;;11.88;6.03;;;;;;;14.27;72.26;100609.48;1702001;83;21068;-69
2021/05/24 04:29:53;;;;;;;5.70;2.00;;;;;;;14.25;72.75;100619.35;1711986;82;21095;-69
2021/05/24 04:32:20;;;;;;;6.97;2.95;;;;;;;14.20;72.58;100626.06;1691544;82;21026;-68
2021/05/24 04:34:46;;;;;;;4.83;1.75;;;;;;;14.16;72.72;100618.89;1684544;82;22600;-69
2021/05/24 04:37:13;;;;;;;3.72;1.45;;;;;;;14.19;72.91;100621.27;1708857;81;21096;-68
2021/05/24 04:39:43;;;;;;;5.65;1.80;;;;;;;14.22;72.70;100625.42;1675038;83;21591;-68
2021/05/24 04:42:11;;;;;;;4.30;1.35;;;;;;;14.19;72.52;100623.05;1695366;82;21104;-71
2021/05/24 04:44:38;;;;;;;5.87;1.40;;;;;;;14.12;72.76;100638.66;1697241;83;21109;-70
2021/05/24 04:47:05;;;;;;;5.15;1.25;;;;;;;14.10;73.03;100643.26;1683944;83;21093;-68
2021/05/24 04:49:33;;;;;;;4.00;1.30;;;;;;;14.13;72.58;100646.95;1696480;84;21172;-67
2021/05/24 04:52:00;;;;;;;2.62;0.98;;;;;;;14.12;72.59;100654.53;1700147;83;21077;-67
2021/05/24 04:54:27;;;;;;;3.52;1.30;;;;;;;14.07;71.91;100659.41;1730743;81;21099;-65
2021/05/24 04:56:53;;;;;;;3.27;1.00;;;;;;;14.02;72.23;100665.59;1746117;79;21116;-65
2021/05/24 04:59:20;;;;;;;3.75;1.20;;;;;;;14.01;72.05;100660.80;1728069;81;21655;-68
2021/05/24 05:01:49;;;;;;;4.72;1.05;;;;;;;14.02;72.33;100669.10;1738133;80;21124;-71
2021/05/24 05:04:16;;;;;;;2.60;1.05;;;;;;;14.01;72.47;100671.88;1728019;80;20914;-73
2021/05/24 05:06:43;;;;;;;3.40;1.42;;;;;;;13.93;72.93;100676.03;1733333;81;21526;-69
2021/05/24 05:09:11;;;;;;;3.80;1.47;;;;;;;13.86;73.03;100676.23;1750961;80;20957;-67
2021/05/24 05:11:37;;;;;;;3.00;1.00;;;;;;;13.87;73.17;100673.95;1751029;79;21010;-67
2021/05/24 05:14:04;;;;;;;4.55;1.12;;;;;;;13.88;73.36;100670.32;1748277;79;20981;-67
2021/05/24 05:16:30;;;;;;;3.27;1.07;;;;;;;13.86;73.22;100674.09;1751328;80;21476;-67
2021/05/24 05:18:57;;;;;;;3.08;0.93;;;;;;;13.80;73.01;100679.45;1752285;79;21049;-67
2021/05/24 05:21:24;;;;;;;3.85;1.10;;;;;;;13.75;73.28;100681.64;1761142;81;21503;-66
2021/05/24 05:23:50;;;;;;;4.58;1.20;;;;;;;13.78;73.41;100687.98;1761046;79;20992;-69
2021/05/24 05:26:16;;;;;;;3.60;1.30;;;;;;;13.78;73.29;100690.63;1732518;81;22289;-67
2021/05/24 05:28:43;;;;;;;4.92;1.67;;;;;;;13.74;73.60;100678.66;1754102;81;22066;-68
2021/05/24 05:32:25;;;;;;;4.33;1.12;;;;;;;13.79;73.87;100695.45;1788973;77;22803;-61
2021/05/24 05:34:52;;;;;;;3.42;1.10;;;;;;;13.81;73.75;100698.80;1732942;80;21092;-61
2021/05/24 05:37:21;;;;;;;4.83;1.37;;;;;;;13.82;73.56;100703.95;1739698;79;21093;-62
2021/05/24 05:39:52;;;;;;;3.62;1.05;;;;;;;13.83;73.35;100707.42;1764374;79;21064;-60
2021/05/24 05:42:16;;;;;;;3.72;1.25;;;;;;;13.79;73.40;100711.33;1761901;79;21095;-63
2021/05/24 05:44:42;;;;;;;3.08;1.10;;;;;;;13.79;73.60;100716.12;1765436;79;21087;-61
2021/05/24 05:47:09;;;;;;;2.90;1.10;;;;;;;13.81;73.29;100718.63;1763025;79;21087;-61
2021/05/24 05:49:36;;;;;;;3.75;1.20;;;;;;;13.81;72.96;100715.98;1720816;80;22479;-61
2021/05/24 05:52:04;;;;;;;4.92;1.50;;;;;;;13.76;72.61;100725.64;1698043;83;21626;-59
2021/05/24 05:54:31;;;;;;;2.12;0.80;;;;;;;13.73;72.87;100729.41;1700792;83;21748;-64
2021/05/24 05:56:59;;;;;;;3.42;1.15;;;;;;;13.76;72.67;100728.28;1674815;83;21115;-63
2021/05/24 05:59:27;;;;;;;3.65;1.40;;;;;;;13.80;73.01;100732.34;1712111;82;21084;-64
2021/05/24 06:01:53;;;;;;;5.47;1.42;;;;;;;13.83;73.42;100743.13;1699033;83;21195;-60
2021/05/24 06:04:20;;;;;;;3.80;1.42;;;;;;;13.80;73.85;100742.07;1674745;83;21186;-61
2021/05/24 06:06:46;;;;;;;4.00;1.37;;;;;;;13.75;73.79;100746.44;1701540;83;21056;-62
2021/05/24 06:09:12;;;;;;;3.67;1.52;;;;;;;13.75;73.51;100747.76;1699740;83;21097;-65
2021/05/24 06:11:39;;;;;;;4.83;1.50;;;;;;;13.78;73.82;100755.92;1699324;82;21498;-62
2021/05/24 06:14:06;;;;;;;3.77;1.62;;;;;;;13.77;73.35;100751.12;1729652;80;21107;-65
2021/05/24 06:16:32;;;;;;;3.60;1.40;;;;;;;13.75;73.46;100757.88;1706441;82;21143;-63
2021/05/24 06:18:59;;;;;;;5.05;1.45;;;;;;;13.72;73.45;100763.42;1696641;82;21464;-60
2021/05/24 06:24:17;;;;;;;5.45;1.60;;;;;;;13.78;73.07;100773.11;1646000;85;21068;-60
2021/05/24 06:26:45;;;;;;;2.98;1.37;;;;;;;13.73;72.70;100770.40;1650687;85;21089;-62
2021/05/24 06:29:12;;;;;;;2.58;0.80;;;;;;;13.68;72.48;100771.26;1647367;85;22357;-60
2021/05/24 06:31:44;;;;;;;3.77;1.15;;;;;;;13.69;72.13;100774.77;1649221;85;21603;-61
2021/05/24 06:34:11;;;;;;;4.00;1.05;;;;;;;13.72;72.03;100778.47;1649216;85;21890;-62
2021/05/24 06:36:39;;;;;;;2.92;1.00;;;;;;;13.72;71.76;100790.37;1644072;86;21174;-67
2021/05/24 06:39:15;;;;;;;2.80;0.90;;;;;;;13.64;71.30;100786.22;1648317;85;21703;-61
2021/05/24 06:41:43;;;;;;;4.28;0.80;;;;;;;13.62;71.73;100800.06;1652409;85;21165;-63
2021/05/24 06:44:10;;;;;;;3.98;1.15;;;;;;;13.63;71.54;100801.72;1652553;85;21793;-64
2021/05/24 06:46:37;;;;;;;3.33;1.10;;;;;;;13.64;70.91;100796.80;1649902;86;21175;-60
2021/05/24 06:49:04;;;;;;;3.40;1.35;;;;;;;13.58;71.23;100806.08;1621833;86;21268;-61
2021/05/24 06:51:30;;;;;;;3.47;1.02;;;;;;;13.52;70.67;100810.09;1663041;84;21296;-60
2021/05/24 06:53:56;;;;;;;2.58;0.80;;;;;;;13.53;71.41;100818.86;1646930;85;21143;-61
2021/05/24 06:56:23;;;;;;;2.87;0.85;;;;;;;13.62;71.42;100818.58;1623789;86;21135;-61
2021/05/24 06:58:50;;;;;;;2.77;0.95;;;;;;;13.67;71.67;100826.45;1656147;85;21442;-61
2021/05/24 07:01:17;;;;;;;2.75;0.70;;;;;;;13.77;71.83;100831.80;1649656;85;21056;-62
2021/05/24 07:03:45;;;;;;;3.33;0.75;;;;;;;13.81;70.26;100829.72;1651904;85;21110;-60
2021/05/24 07:06:11;;;;;;;2.72;0.88;;;;;;;13.84;70.44;100828.13;1650665;85;21089;-62
2021/05/24 07:08:39;;;;;;;1.92;0.65;;;;;;;13.91;70.25;100829.27;1647437;85;21652;-61
2021/05/24 07:11:06;;;;;;;1.90;0.65;;;;;;;13.95;69.29;100828.02;1648697;85;21201;-63
2021/05/24 07:13:34;;;;;;;3.15;0.40;;;;;;;13.90;69.04;100835.05;1654072;85;21175;-62
2021/05/24 07:16:00;;;;;;;3.27;0.60;;;;;;;13.86;68.55;100832.30;1644313;85;21094;-61
2021/05/24 07:18:27;;;;;;;2.35;0.55;;;;;;;13.82;68.91;100836.66;1642847;85;21143;-62
2021/05/24 07:20:57;;;;;;;2.35;0.70;;;;;;;13.84;69.06;100843.52;1652997;85;21154;-62
2021/05/24 07:23:26;;;;;;;1.72;0.60;;;;;;;13.90;68.93;100839.48;1648252;85;21152;-63
2021/05/24 07:25:53;;;;;;;3.20;0.80;;;;;;;13.87;68.80;100840.60;1643353;85;21110;-62
2021/05/24 07:28:19;;;;;;;1.00;0.40;;;;;;;13.85;68.71;100842.55;1648643;85;21157;-61
2021/05/24 07:30:48;;;;;;;2.17;0.53;;;;;;;13.83;68.34;100838.35;1648248;85;21086;-61
2021/05/24 07:33:16;;;;;;;2.42;0.82;;;;;;;13.85;68.55;100835.94;1645288;85;21062;-60
2021/05/24 07:35:44;;;;;;;1.72;0.60;;;;;;;13.89;67.86;100850.56;1642085;85;21222;-62
2021/05/24 07:38:11;;;;;;;1.27;0.42;;;;;;;13.85;68.96;100847.84;1617563;86;21175;-64
2021/05/24 07:40:39;;;;;;;3.55;0.90;;;;;;;13.83;69.10;100853.73;1617063;86;21151;-65
2021/05/24 07:43:07;;;;;;;1.85;0.55;;;;;;;13.86;68.46;100861.90;1618441;86;21182;-65
2021/05/24 07:45:37;;;;;;;3.75;0.70;;;;;;;13.91;68.89;100860.52;1651565;85;21755;-64
2021/05/24 07:48:06;;;;;;;3.70;0.98;;;;;;;13.89;69.62;100862.47;1620346;86;21130;-65
2021/05/24 07:50:33;;;;;;;3.12;0.72;;;;;;;13.91;69.15;100867.63;1595577;88;21188;-60
2021/05/24 07:53:00;;;;;;;2.50;0.60;;;;;;;13.91;68.90;100855.23;1619110;86;21127;-60
2021/05/24 07:55:27;;;;;;;2.10;0.50;;;;;;;14.01;69.15;100868.99;1623601;86;21096;-62
2021/05/24 07:57:53;;;;;;;2.72;0.65;;;;;;;14.01;69.17;100863.70;1622341;86;21158;-60
2021/05/24 08:00:25;;;;;;;2.30;0.72;;;;;;;13.98;69.17;100877.20;1651935;85;21213;-60
2021/05/24 08:02:49;;;;;;;2.40;0.70;;;;;;;13.98;69.22;100874.55;1646484;85;21233;-59
2021/05/24 08:05:16;;;;;;;3.30;0.80;;;;;;;14.05;69.00;100877.83;1648635;85;21139;-62
2021/05/24 08:07:43;;;;;;;2.27;0.70;;;;;;;14.10;68.93;100880.09;1647790;85;21083;-60
2021/05/24 08:10:12;;;;;;;2.35;0.85;;;;;;;14.09;68.91;100879.26;1647659;85;21613;-60
2021/05/24 08:12:40;;;;;;;3.30;0.70;;;;;;;14.09;69.27;100873.97;1649449;85;21153;-60
2021/05/24 08:15:12;;;;;;;1.57;0.70;;;;;;;14.12;68.14;100878.14;1649191;85;21117;-60
2021/05/24 08:17:39;;;;;;;2.45;0.70;;;;;;;14.17;68.22;100878.60;1617828;87;21735;-60
2021/05/24 08:20:08;;;;;;;2.95;0.80;;;;;;;14.17;67.40;100880.39;1616241;87;21134;-61
2021/05/24 08:22:38;;;;;;;2.50;0.80;;;;;;;14.15;68.08;100893.75;1615521;87;21218;-61
2021/05/24 08:25:07;;;;;;;2.55;0.60;;;;;;;14.18;68.17;100882.08;1683441;83;21107;-60
2021/05/24 08:27:35;;;;;;;3.85;0.80;;;;;;;14.28;67.86;100889.06;1681650;84;21127;-61
2021/05/24 08:30:55;;;;;;;2.42;0.78;;;;;;;14.33;67.79;100892.64;1684314;83;21193;-60
2021/05/24 08:33:22;;;;;;;2.85;0.90;;;;;;;14.34;67.78;100882.88;1682333;84;21194;-60
2021/05/24 08:35:49;;;;;;;2.58;0.80;;;;;;;14.32;67.49;100901.54;1684376;83;21155;-61
2021/05/24 08:38:17;;;;;;;2.92;0.50;;;;;;;14.40;67.37;100895.09;1680695;84;21186;-61
2021/05/24 08:40:45;;;;;;;4.65;1.35;;;;;;;14.49;67.24;100894.30;1683566;83;21443;-60
2021/05/24 08:43:15;;;;;;;5.10;0.95;;;;;;;14.51;66.85;100898.13;1685139;83;21115;-63
2021/05/24 08:45:42;;;;;;;2.72;0.90;;;;;;;14.57;67.07;100917.92;1684033;83;21607;-62
2021/05/24 08:48:10;;;;;;;3.17;0.80;;;;;;;14.60;65.96;100910.57;1670683;84;21123;-61
2021/05/24 08:50:36;;;;;;;2.10;0.70;;;;;;;14.65;65.51;100890.31;1681296;83;21177;-58
2021/05/24 08:53:08;;;;;;;1.82;0.68;;;;;;;14.65;66.57;100928.22;1642420;85;21106;-59
2021/05/24 08:55:35;;;;;;;1.92;0.60;;;;;;;14.65;66.66;100935.33;1624701;86;21096;-60
2021/05/24 08:58:01;;;;;;;2.25;0.80;;;;;;;14.71;66.86;100940.56;1650022;83;21091;-61
2021/05/24 09:00:27;;;;;;;3.55;0.78;;;;;;;14.81;67.37;100936.98;1645770;83;21124;-60
2021/05/24 09:02:55;;;;;;;2.77;0.70;;;;;;;14.88;67.84;100943.89;1677025;83;21396;-68
2021/05/24 09:05:28;;;;;;;2.77;0.80;;;;;;;14.94;66.51;100947.30;1675525;84;21159;-63
2021/05/24 09:07:58;;;;;;;2.72;0.88;;;;;;;14.94;66.24;100942.49;1612954;85;21847;-61
2021/05/24 09:10:28;;;;;;;3.02;0.70;;;;;;;14.96;66.80;100949.34;1644625;85;21098;-60
2021/05/24 09:12:55;;;;;;;3.02;0.90;;;;;;;15.05;66.67;100945.85;1596749;88;21195;-58
2021/05/24 09:15:25;;;;;;;4.90;1.10;;;;;;;15.08;66.57;100950.52;1642866;85;21152;-59
2021/05/24 09:17:55;;;;;;;3.80;1.00;;;;;;;15.01;65.83;100933.86;1613397;87;21100;-62
2021/05/24 09:20:43;;;;;;;2.33;0.80;;;;;;;14.97;65.95;100942.22;1635798;85;21737;-60
2021/05/24 09:23:33;;;;;;;2.70;0.80;;;;;;;15.02;66.02;100955.89;1639725;85;21166;-60
2021/05/24 09:26:10;;;;;;;2.98;0.90;;;;;;;15.13;64.65;100951.80;1651236;85;21146;-64
2021/05/24 09:28:44;;;;;;;3.62;1.17;;;;;;;15.17;64.27;100964.28;1641978;85;21120;-61
2021/05/24 09:31:45;;;;;;;5.22;0.82;;;;;;;15.15;64.33;100965.74;1641060;86;21199;-59
2021/05/24 09:34:11;;;;;;;3.08;1.15;;;;;;;15.18;62.67;100964.14;1637262;85;21575;-57
2021/05/24 09:36:38;;;;;;;2.70;1.00;;;;;;;15.24;62.40;100962.74;1643642;85;21185;-57
2021/05/24 09:39:10;;;;;;;3.25;0.80;;;;;;;15.26;62.41;100978.02;1618419;86;21617;-58
2021/05/24 09:41:46;;;;;;;3.52;0.80;;;;;;;15.27;62.91;100985.00;1616311;86;21768;-58
2021/05/24 09:44:23;;;;;;;2.25;0.75;;;;;;;15.30;62.21;100986.52;1655444;85;21041;-58
2021/05/24 09:46:51;;;;;;;2.12;0.70;;;;;;;15.39;62.92;100985.70;1644007;85;21185;-58
2021/05/24 09:49:24;;;;;;;2.22;0.70;;;;;;;15.55;62.07;100994.41;1639577;85;21713;-59
2021/05/24 09:51:51;;;;;;;2.27;0.72;;;;;;;15.61;61.56;100991.20;1633431;86;21184;-59
2021/05/24 09:54:19;;;;;;;2.42;0.82;;;;;;;15.66;61.62;100998.25;1617427;86;21735;-59
2021/05/24 09:56:49;;;;;;;2.77;0.80;;;;;;;15.77;62.37;101005.27;1615130;87;21183;-59
2021/05/24 09:59:21;;;;;;;2.58;0.90;;;;;;;15.86;61.54;100993.80;1644590;85;21695;-59
2021/05/24 10:01:52;;;;;;;3.00;0.70;;;;;;;16.01;59.91;100993.36;1652395;85;20953;-58
2021/05/24 10:04:20;;;;;;;2.50;0.78;;;;;;;16.09;59.33;100988.17;1642018;85;21075;-59
2021/05/24 10:06:47;;;;;;;3.67;0.98;;;;;;;16.07;58.97;100988.31;1642643;85;21144;-58
2021/05/24 10:09:16;;;;;;;2.75;0.85;;;;;;;16.07;59.42;100991.44;1625993;88;21116;-58
2021/05/24 10:11:46;;;;;;;2.37;0.75;;;;;;;16.12;59.24;100993.17;1642718;85;21225;-58
2021/05/24 10:14:15;;;;;;;2.27;0.80;;;;;;;16.21;59.90;100988.84;1617204;87;21110;-60
2021/05/24 10:16:47;;;;;;;2.42;0.78;;;;;;;16.37;59.27;100989.03;1643750;85;21162;-58
2021/05/24 10:19:18;;;;;;;2.52;0.90;;;;;;;16.46;57.93;100986.84;1653032;85;21553;-59
2021/05/24 10:21:47;;;;;;;2.20;0.90;;;;;;;16.48;58.34;100977.41;1642460;85;21107;-58
2021/05/24 10:24:15;;;;;;;2.55;0.80;;;;;;;16.45;57.98;100986.48;1651322;85;21179;-59
2021/05/24 10:26:43;;;;;;;2.98;0.95;;;;;;;16.44;58.66;100990.14;1650016;85;21166;-59
2021/05/24 10:29:10;;;;;;;2.42;1.00;;;;;;;16.50;59.24;100989.53;1681065;83;21576;-60
2021/05/24 10:31:39;;;;;;;3.72;1.02;;;;;;;16.57;58.77;100987.13;1682436;83;21146;-59
2021/05/24 10:34:14;;;;;;;3.40;0.85;;;;;;;16.55;57.82;100986.95;1682106;83;21108;-59
2021/05/24 10:36:40;;;;;;;1.65;0.68;;;;;;;16.51;57.72;100989.06;1655273;84;21281;-59
2021/05/24 10:39:20;;;;;;;3.72;0.78;;;;;;;16.53;57.88;100987.92;1655205;84;21135;-60
2021/05/24 10:42:00;;;;;;;4.70;0.80;;;;;;;16.62;58.75;100993.34;1612590;85;21125;-60
2021/05/24 10:44:37;;;;;;;4.60;1.07;;;;;;;16.76;58.32;100995.52;1641183;85;22683;-59
2021/05/24 10:47:27;;;;;;;2.58;0.70;;;;;;;16.83;56.35;100986.45;1652977;85;21101;-59
2021/05/24 10:50:05;;;;;;;2.30;0.75;;;;;;;16.89;56.65;100997.36;1647650;85;21854;-59
2021/05/24 10:52:36;;;;;;;1.95;0.72;;;;;;;16.96;56.25;100982.95;1645949;85;21084;-59
2021/05/24 10:55:29;;;;;;;2.62;0.80;;;;;;;16.99;54.79;100991.13;1651371;85;21060;-59
2021/05/24 10:58:04;;;;;;;1.85;0.70;;;;;;;17.01;55.25;100994.47;1638257;85;21159;-59
2021/05/24 11:01:03;;;;;;;3.20;0.98;;;;;;;17.07;55.05;101001.86;1639752;85;21183;-59
2021/05/24 11:03:31;;;;;;;2.37;0.93;;;;;;;17.17;56.39;100995.97;1628809;84;21076;-57
2021/05/24 11:06:16;;;;;;;3.55;0.65;;;;;;;17.40;54.45;101000.83;1680151;83;21139;-57
2021/05/24 11:09:04;;;;;;;1.70;0.70;;;;;;;17.52;53.73;101007.61;1680992;83;21229;-60
2021/05/24 11:11:37;;;;;;;8.60;0.95;;;;;;;17.67;52.83;101001.73;1671546;83;21126;-58
2021/05/24 11:14:07;;;;;;;2.42;0.80;;;;;;;17.79;51.99;101003.17;1645428;84;21724;-58
2021/05/24 11:16:35;;;;;;;2.87;0.70;;;;;;;17.89;52.29;101002.61;1678253;83;22503;-58
2021/05/24 11:19:12;;;;;;;1.87;0.72;;;;;;;17.99;52.20;101005.18;1677062;83;21123;-59
2021/05/24 11:21:56;;;;;;;3.65;0.70;;;;;;;18.07;51.45;101003.05;1679305;83;21413;-59
2021/05/24 11:27:11;;;;;;;2.25;0.57;;;;;;;18.20;50.86;100992.30;1665475;84;21112;-59
2021/05/24 11:29:39;;;;;;;3.00;0.70;;;;;;;18.33;51.46;100993.72;1651694;85;21159;-59
2021/05/24 11:32:28;;;;;;;1.95;0.60;;;;;;;18.49;50.93;100996.95;1653500;84;21128;-58
2021/05/24 11:34:56;;;;;;;2.20;0.80;;;;;;;18.58;50.13;100997.34;1641321;83;21202;-60
2021/05/24 11:37:44;;;;;;;2.50;0.60;;;;;;;18.64;49.58;101002.00;1680817;84;21104;-60
2021/05/24 11:40:16;;;;;;;2.55;1.05;;;;;;;18.66;49.41;101001.37;1679159;84;22429;-59
2021/05/24 11:42:43;;;;;;;2.58;0.90;;;;;;;18.65;49.11;101006.35;1664974;83;21100;-60